createdAt,value
2022-08-03T00:02:19.342Z,25.37
2022-08-03T00:04:48.268Z,26.30
2022-08-03T00:07:15.926Z,27.20
2022-08-03T00:09:46.278Z,27.77
2022-08-03T00:12:16.514Z,27.56
2022-08-03T00:14:44.114Z,26.89
2022-08-03T00:17:11.615Z,27.39
2022-08-03T00:19:38.993Z,27.29
2022-08-03T00:22:06.363Z,26.96
2022-08-03T00:24:36.396Z,26.45
2022-08-03T00:27:03.793Z,27.18
2022-08-03T00:29:31.249Z,27.01
2022-08-03T00:32:00.220Z,26.64
2022-08-03T00:34:36.513Z,26.89
2022-08-03T00:37:16.440Z,27.37
2022-08-03T00:39:46.169Z,26.87
2022-08-03T00:42:16.799Z,26.62
2022-08-03T00:44:46.628Z,26.49
2022-08-03T00:47:13.990Z,26.51
2022-08-03T00:49:43.624Z,26.90
2022-08-03T00:52:12.044Z,26.96
2022-08-03T00:54:39.827Z,26.80
2022-08-03T00:57:08.204Z,26.88
2022-08-03T00:59:37.229Z,26.84
2022-08-03T01:02:04.661Z,26.63
2022-08-03T01:04:31.910Z,26.69
2022-08-03T01:07:13.344Z,26.35
2022-08-03T01:09:46.212Z,26.14
2022-08-03T01:12:22.886Z,26.31
2022-08-03T01:14:58.934Z,26.55
2022-08-03T01:17:28.311Z,26.21
2022-08-03T01:20:14.784Z,26.32
2022-08-03T01:23:11.034Z,25.41
2022-08-03T01:26:05.832Z,24.95
2022-08-03T01:28:56.855Z,25.59
2022-08-03T01:31:29.894Z,26.04
2022-08-03T01:34:03.383Z,26.07
2022-08-03T01:36:41.688Z,25.56
2022-08-03T01:39:12.040Z,24.73
2022-08-03T01:41:48.071Z,24.55
2022-08-03T01:44:29.016Z,24.18
2022-08-03T01:47:03.236Z,24.82
2022-08-03T01:49:32.606Z,25.56
2022-08-03T01:52:05.503Z,25.68
2022-08-03T01:54:41.796Z,26.08
2022-08-03T01:57:12.534Z,25.99
2022-08-03T01:59:42.432Z,25.56
2022-08-03T02:02:15.547Z,25.59
2022-08-03T02:05:02.311Z,25.84
2022-08-03T02:07:30.869Z,25.97
2022-08-03T02:09:58.884Z,26.29
2022-08-03T02:12:28.514Z,26.23
2022-08-03T02:14:57.611Z,26.28
2022-08-03T02:17:39.058Z,25.84
2022-08-03T02:20:13.379Z,25.15
2022-08-03T02:22:42.529Z,25.55
2022-08-03T02:25:12.554Z,26.35
2022-08-03T02:28:08.628Z,26.11
2022-08-03T02:30:39.334Z,25.99
2022-08-03T02:33:12.680Z,25.85
2022-08-03T02:35:41.478Z,25.03
2022-08-03T02:38:11.754Z,25.13
2022-08-03T02:40:41.351Z,25.04
2022-08-03T02:43:12.464Z,24.56
2022-08-03T02:45:45.626Z,25.06
2022-08-03T02:48:17.718Z,25.15
2022-08-03T02:50:47.244Z,25.28
2022-08-03T02:53:17.766Z,24.60
2022-08-03T02:55:50.278Z,24.16
2022-08-03T02:58:21.617Z,24.87
2022-08-03T03:00:54.288Z,25.25
2022-08-03T03:03:22.888Z,25.41
2022-08-03T03:05:57.566Z,25.76
2022-08-03T03:08:29.079Z,25.53
2022-08-03T03:11:01.170Z,24.78
2022-08-03T03:13:30.677Z,24.94
2022-08-03T03:16:04.208Z,25.29
2022-08-03T03:18:35.344Z,25.27
2022-08-03T03:21:04.817Z,24.42
2022-08-03T03:23:39.580Z,24.87
2022-08-03T03:26:08.042Z,25.34
2022-08-03T03:28:39.240Z,24.98
2022-08-03T03:31:07.778Z,24.71
2022-08-03T03:33:35.900Z,24.53
2022-08-03T03:36:04.970Z,24.33
2022-08-03T03:38:33.103Z,24.03
2022-08-03T03:41:00.773Z,23.51
2022-08-03T03:43:29.649Z,23.90
2022-08-03T03:45:59.206Z,24.71
2022-08-03T03:48:26.973Z,24.78
2022-08-03T03:50:54.712Z,24.76
2022-08-03T03:53:22.186Z,24.98
2022-08-03T03:56:01.969Z,24.42
2022-08-03T03:58:33.087Z,24.27
2022-08-03T04:01:03.649Z,24.84
2022-08-03T04:03:31.325Z,25.69
2022-08-03T04:06:17.588Z,25.72
2022-08-03T04:09:04.391Z,25.19
2022-08-03T04:12:01.365Z,25.24
2022-08-03T04:14:36.606Z,24.60
2022-08-03T04:17:09.716Z,24.52
2022-08-03T04:19:44.125Z,25.14
2022-08-03T04:22:17.031Z,25.34
2022-08-03T04:24:53.657Z,25.53
2022-08-03T04:27:29.022Z,25.03
2022-08-03T04:29:57.874Z,25.24
2022-08-03T04:32:28.923Z,24.64
2022-08-03T04:34:56.725Z,25.02
2022-08-03T04:37:48.134Z,25.64
2022-08-03T04:40:22.968Z,25.44
2022-08-03T04:42:51.323Z,25.10
2022-08-03T04:45:19.819Z,25.15
2022-08-03T04:47:47.639Z,25.67
2022-08-03T04:50:21.186Z,26.28
2022-08-03T04:53:06.075Z,27.76
2022-08-03T04:55:38.239Z,29.05
2022-08-03T04:58:06.583Z,29.39
2022-08-03T05:00:33.988Z,30.83
2022-08-03T05:03:01.373Z,30.47
2022-08-03T05:05:34.651Z,30.74
2022-08-03T05:08:17.161Z,31.49
2022-08-03T05:10:49.868Z,31.58
2022-08-03T05:13:17.258Z,31.75
2022-08-03T05:15:47.377Z,31.61
2022-08-03T05:18:14.636Z,31.61
2022-08-03T05:20:42.224Z,31.21
2022-08-03T05:23:09.503Z,31.39
2022-08-03T05:25:36.797Z,33.07
2022-08-03T05:28:05.145Z,32.62
2022-08-03T05:30:34.060Z,32.39
2022-08-03T05:33:05.024Z,32.01
2022-08-03T05:35:57.397Z,32.46
2022-08-03T05:38:28.572Z,32.32
2022-08-03T05:41:21.711Z,33.30
2022-08-03T05:43:50.018Z,32.72
2022-08-03T05:46:17.509Z,33.23
2022-08-03T05:48:44.758Z,33.08
2022-08-03T05:51:12.689Z,32.58
2022-08-03T05:53:44.232Z,33.11
2022-08-03T05:56:15.272Z,33.12
2022-08-03T05:58:45.223Z,33.49
2022-08-03T06:01:13.052Z,33.52
2022-08-03T06:03:40.700Z,34.21
2022-08-03T06:06:08.177Z,34.20
2022-08-03T06:08:38.716Z,33.86
2022-08-03T06:11:07.603Z,33.71
2022-08-03T06:13:42.187Z,34.05
2022-08-03T06:16:09.575Z,34.73
2022-08-03T06:18:37.994Z,35.10
2022-08-03T06:21:14.742Z,35.51
2022-08-03T06:23:54.121Z,35.29
2022-08-03T06:26:25.555Z,34.68
2022-08-03T06:28:54.444Z,34.65
2022-08-03T06:31:33.412Z,35.06
2022-08-03T06:34:35.115Z,34.89
2022-08-03T06:36:53.531Z,34.99
2022-08-03T06:39:24.558Z,35.49
2022-08-03T06:41:53.254Z,35.89
2022-08-03T06:44:20.674Z,35.94
2022-08-03T06:46:49.034Z,35.88
2022-08-03T06:49:16.486Z,36.21
2022-08-03T06:52:05.268Z,35.48
2022-08-03T06:54:33.270Z,35.06
2022-08-03T06:57:01.104Z,35.02
2022-08-03T07:00:10.769Z,35.28
2022-08-03T07:02:19.763Z,36.05
2022-08-03T07:04:49.420Z,35.14
2022-08-03T07:07:17.787Z,35.28
2022-08-03T07:09:55.684Z,35.44
2022-08-03T07:12:26.448Z,35.02
2022-08-03T07:14:59.589Z,35.90
2022-08-03T07:17:34.984Z,36.69
2022-08-03T07:20:06.366Z,35.87
2022-08-03T07:22:37.326Z,35.52
2022-08-03T07:25:06.302Z,36.05
2022-08-03T07:27:34.150Z,35.70
2022-08-03T07:30:02.249Z,36.00
2022-08-03T07:32:31.837Z,35.49
2022-08-03T07:35:01.779Z,35.78
2022-08-03T07:37:30.616Z,35.84
2022-08-03T07:39:59.281Z,35.80
2022-08-03T07:42:30.712Z,34.90
2022-08-03T07:44:59.612Z,35.67
2022-08-03T07:47:34.841Z,36.54
2022-08-03T07:50:04.515Z,36.25
2022-08-03T07:52:48.707Z,36.03
2022-08-03T07:55:21.747Z,36.15
2022-08-03T07:58:21.993Z,36.61
2022-08-03T08:00:53.474Z,36.04
2022-08-03T08:03:22.159Z,35.47
2022-08-03T08:05:51.472Z,35.50
2022-08-03T08:08:21.905Z,35.89
2022-08-03T08:10:58.341Z,35.30
2022-08-03T08:13:26.221Z,35.12
2022-08-03T08:15:53.727Z,36.12
2022-08-03T08:18:24.373Z,36.87
2022-08-03T08:20:52.552Z,36.55
2022-08-03T08:23:42.261Z,35.62
2022-08-03T08:26:10.728Z,36.57
2022-08-03T08:28:38.474Z,36.89
2022-08-03T08:31:05.972Z,35.80
2022-08-03T08:34:02.532Z,35.11
2022-08-03T08:36:22.402Z,34.81
2022-08-03T08:38:49.767Z,35.55
2022-08-03T08:41:17.594Z,36.71
2022-08-03T08:43:45.067Z,36.67
2022-08-03T08:46:23.112Z,35.67
2022-08-03T08:48:52.255Z,35.80
2022-08-03T08:51:21.887Z,36.94
2022-08-03T08:53:53.299Z,37.34
2022-08-03T08:56:25.714Z,36.60
2022-08-03T08:58:58.280Z,35.48
2022-08-03T09:01:26.910Z,35.41
2022-08-03T09:03:58.858Z,35.44
2022-08-03T09:06:26.254Z,35.35
2022-08-03T09:08:53.698Z,34.57
2022-08-03T09:11:54.498Z,34.71
2022-08-03T09:14:36.961Z,34.74
2022-08-03T09:17:04.726Z,35.49
2022-08-03T09:19:42.044Z,35.26
2022-08-03T09:22:30.265Z,34.99
2022-08-03T09:25:22.889Z,34.64
2022-08-03T09:27:48.011Z,35.41
2022-08-03T09:30:32.512Z,35.54
2022-08-03T09:33:11.817Z,35.82
2022-08-03T09:35:57.768Z,36.27
2022-08-03T09:38:28.791Z,36.02
2022-08-03T09:40:59.963Z,35.11
2022-08-03T09:43:46.754Z,34.75
2022-08-03T09:46:13.955Z,34.62
2022-08-03T09:48:41.632Z,35.17
2022-08-03T09:51:14.278Z,35.63
2022-08-03T09:54:00.461Z,35.64
2022-08-03T09:56:47.604Z,35.74
2022-08-03T09:59:30.836Z,35.60
2022-08-03T10:02:00.260Z,35.13
2022-08-03T10:04:29.118Z,35.15
2022-08-03T10:07:10.848Z,34.97
2022-08-03T10:09:38.656Z,35.68
2022-08-03T10:12:14.066Z,35.53
2022-08-03T10:14:48.259Z,36.03
2022-08-03T10:17:16.027Z,36.64
2022-08-03T10:19:43.821Z,37.74
2022-08-03T10:22:15.838Z,36.98
2022-08-03T10:24:53.355Z,36.74
2022-08-03T10:27:23.608Z,37.03
2022-08-03T10:29:57.222Z,36.26
2022-08-03T10:33:02.382Z,35.93
2022-08-03T10:35:30.545Z,37.80
2022-08-03T10:38:08.456Z,37.48
2022-08-03T10:40:58.672Z,37.58
2022-08-03T10:43:37.740Z,37.10
2022-08-03T10:46:09.001Z,37.25
2022-08-03T10:48:37.271Z,37.20
2022-08-03T10:51:05.266Z,36.15
2022-08-03T10:53:38.362Z,36.15
2022-08-03T10:56:43.775Z,37.17
2022-08-03T10:59:14.726Z,38.79
2022-08-03T11:02:00.121Z,38.24
2022-08-03T11:04:30.498Z,37.51
2022-08-03T11:07:17.030Z,36.47
2022-08-03T11:09:50.745Z,37.15
2022-08-03T11:12:29.878Z,38.11
2022-08-03T11:15:01.731Z,37.01
2022-08-03T11:17:29.486Z,36.24
2022-08-03T11:19:58.567Z,36.77
2022-08-03T11:22:28.510Z,37.10
2022-08-03T11:25:00.051Z,37.27
2022-08-03T11:27:33.436Z,37.64
2022-08-03T11:30:09.673Z,37.80
2022-08-03T11:32:48.431Z,37.33
2022-08-03T11:35:31.112Z,38.25
2022-08-03T11:38:04.622Z,39.53
2022-08-03T11:40:35.523Z,40.49
2022-08-03T11:43:04.948Z,39.72
2022-08-03T11:45:32.467Z,39.99
2022-08-03T11:48:15.239Z,38.20
2022-08-03T11:50:45.797Z,37.79
2022-08-03T11:53:19.175Z,37.69
2022-08-03T11:55:51.318Z,37.68
2022-08-03T11:59:15.398Z,37.53
2022-08-03T12:01:08.994Z,37.35
2022-08-03T12:03:36.602Z,37.73
2022-08-03T12:06:10.666Z,37.09
2022-08-03T12:08:38.472Z,36.13
2022-08-03T12:11:09.322Z,36.25
2022-08-03T12:14:44.706Z,35.75
2022-08-03T12:16:47.162Z,35.98
2022-08-03T12:19:14.601Z,35.86
2022-08-03T12:21:57.067Z,36.10
2022-08-03T12:24:25.018Z,36.07
2022-08-03T12:26:58.794Z,35.44
2022-08-03T12:29:30.053Z,35.24
2022-08-03T12:31:57.798Z,35.07
2022-08-03T12:34:47.405Z,34.80
2022-08-03T12:37:22.541Z,34.88
2022-08-03T12:40:05.004Z,35.45
2022-08-03T12:42:35.854Z,35.33
2022-08-03T12:45:23.996Z,35.01
2022-08-03T12:48:02.317Z,35.47
2022-08-03T12:50:35.087Z,35.44
2022-08-03T12:53:08.846Z,35.74
2022-08-03T12:55:56.597Z,35.72
2022-08-03T12:58:36.314Z,35.97
2022-08-03T13:01:09.688Z,36.25
2022-08-03T13:03:50.414Z,36.53
2022-08-03T13:06:27.546Z,37.20
2022-08-03T13:09:08.865Z,37.09
2022-08-03T13:11:57.720Z,37.06
2022-08-03T13:14:23.997Z,37.54
2022-08-03T13:16:51.751Z,37.31
2022-08-03T13:19:19.130Z,37.35
2022-08-03T13:21:53.864Z,36.94
2022-08-03T13:24:33.237Z,35.57
2022-08-03T13:28:01.092Z,34.53
2022-08-03T13:29:51.057Z,34.14
2022-08-03T13:32:18.526Z,33.81
2022-08-03T13:34:46.227Z,33.69
2022-08-03T13:37:14.365Z,33.44
2022-08-03T13:39:57.297Z,33.36
2022-08-03T13:42:26.475Z,33.33
2022-08-03T13:44:53.938Z,33.17
2022-08-03T13:47:21.690Z,32.84
2022-08-03T13:49:59.803Z,32.83
2022-08-03T13:52:36.790Z,32.44
2022-08-03T13:55:07.845Z,32.23
2022-08-03T13:58:04.378Z,32.43
2022-08-03T14:00:28.620Z,32.32
2022-08-03T14:03:12.629Z,32.22
2022-08-03T14:05:42.299Z,32.16
2022-08-03T14:08:10.044Z,32.06
2022-08-03T14:10:41.707Z,32.00
2022-08-03T14:13:10.941Z,32.23
2022-08-03T14:15:38.739Z,32.32
2022-08-03T14:18:12.875Z,32.53
2022-08-03T14:20:49.057Z,32.34
2022-08-03T14:23:19.108Z,32.16
2022-08-03T14:25:51.672Z,32.21
2022-08-03T14:28:23.227Z,32.17
2022-08-03T14:30:52.376Z,32.32
2022-08-03T14:33:20.437Z,33.07
2022-08-03T14:35:48.765Z,33.15
2022-08-03T14:38:17.124Z,33.19
2022-08-03T14:40:45.043Z,33.29
2022-08-03T14:43:12.955Z,33.17
2022-08-03T14:45:45.650Z,33.69
2022-08-03T14:50:10.480Z,33.43
2022-08-03T14:51:02.116Z,33.41
2022-08-03T14:53:30.381Z,33.50
2022-08-03T14:55:58.830Z,32.82
2022-08-03T14:58:26.964Z,32.45
2022-08-03T15:00:55.718Z,32.82
2022-08-03T15:03:25.134Z,32.98
2022-08-03T15:05:57.411Z,33.00
2022-08-03T15:08:26.041Z,33.40
2022-08-03T15:10:54.857Z,32.94
2022-08-03T15:13:22.577Z,32.94
2022-08-03T15:15:50.283Z,32.64
2022-08-03T15:18:18.057Z,32.35
2022-08-03T15:20:47.002Z,32.14
2022-08-03T15:23:18.362Z,32.07
2022-08-03T15:26:31.583Z,31.73
2022-08-03T15:28:34.102Z,31.94
2022-08-03T15:31:05.748Z,31.86
2022-08-03T15:33:33.338Z,31.90
2022-08-03T15:36:03.007Z,32.07
2022-08-03T15:38:30.460Z,31.80
2022-08-03T15:40:59.319Z,31.58
2022-08-03T15:43:26.763Z,31.63
2022-08-03T15:46:26.603Z,31.50
2022-08-03T15:48:41.994Z,31.88
2022-08-03T15:51:09.757Z,32.06
2022-08-03T15:53:38.109Z,31.63
2022-08-03T15:56:11.421Z,31.08
2022-08-03T15:59:09.201Z,31.06
2022-08-03T16:01:33.125Z,30.93
2022-08-03T16:04:00.566Z,30.94
2022-08-03T16:06:34.634Z,30.90
2022-08-03T16:09:23.949Z,31.19
2022-08-03T16:11:54.805Z,30.91
2022-08-03T16:14:34.243Z,31.21
2022-08-03T16:17:04.558Z,30.81
2022-08-03T16:19:31.939Z,30.76
2022-08-03T16:21:59.883Z,30.49
2022-08-03T16:24:28.472Z,30.47
2022-08-03T16:26:56.698Z,30.79
2022-08-03T16:29:24.314Z,30.42
2022-08-03T16:31:52.700Z,30.21
2022-08-03T16:34:21.498Z,30.08
2022-08-03T16:36:48.967Z,30.06
2022-08-03T16:39:16.505Z,29.98
2022-08-03T16:41:53.872Z,30.13
2022-08-03T16:44:31.653Z,30.15
2022-08-03T16:47:00.734Z,30.07
2022-08-03T16:49:54.298Z,29.91
2022-08-03T16:52:17.857Z,29.79
2022-08-03T16:54:53.078Z,29.57
2022-08-03T16:57:56.116Z,29.43
2022-08-03T17:00:34.134Z,29.45
2022-08-03T17:03:04.505Z,29.57
2022-08-03T17:05:43.865Z,29.51
2022-08-03T17:08:26.359Z,29.44
2022-08-03T17:10:55.867Z,29.27
2022-08-03T17:13:38.833Z,29.23
2022-08-03T17:16:15.420Z,29.19
2022-08-03T17:18:49.650Z,29.04
2022-08-03T17:21:20.409Z,29.00
2022-08-03T17:24:18.665Z,29.01
2022-08-03T17:26:51.177Z,28.96
2022-08-03T17:29:23.210Z,28.96
2022-08-03T17:31:53.189Z,28.87
2022-08-03T17:34:26.367Z,28.78
2022-08-03T17:37:04.188Z,28.71
2022-08-03T17:39:58.719Z,28.57
2022-08-03T17:42:30.520Z,28.57
2022-08-03T17:45:03.972Z,28.54
2022-08-03T17:47:42.073Z,28.50
2022-08-03T17:50:25.003Z,28.42
2022-08-03T17:53:23.987Z,28.33
2022-08-03T17:56:40.409Z,28.29
2022-08-03T17:59:52.401Z,28.14
2022-08-03T18:02:52.401Z,28.01
2022-08-03T18:05:22.190Z,27.97
2022-08-03T18:07:59.329Z,27.98
2022-08-03T18:10:34.553Z,27.82
2022-08-03T18:13:15.989Z,27.55
2022-08-03T18:15:53.495Z,27.59
2022-08-03T18:18:32.689Z,27.30
2022-08-03T18:21:09.319Z,27.58
2022-08-03T18:23:45.248Z,27.53
2022-08-03T18:26:18.338Z,27.49
2022-08-03T18:28:45.845Z,27.41
2022-08-03T18:31:59.592Z,27.25
2022-08-03T18:34:17.379Z,27.24
2022-08-03T18:36:52.659Z,27.20
2022-08-03T18:39:23.552Z,27.19
2022-08-03T18:41:52.402Z,27.19
2022-08-03T18:44:53.510Z,27.15
2022-08-03T18:47:50.547Z,27.13
2022-08-03T18:50:53.811Z,27.12
2022-08-03T18:54:03.027Z,27.11
2022-08-03T18:56:47.801Z,27.07
2022-08-03T18:59:30.267Z,26.80
2022-08-03T19:02:05.888Z,26.85
2022-08-03T19:04:45.595Z,26.94
2022-08-03T19:07:23.439Z,26.94
2022-08-03T19:09:58.764Z,27.01
2022-08-03T19:12:30.916Z,26.92
2022-08-03T19:15:12.596Z,26.76
2022-08-03T19:17:50.154Z,27.16
2022-08-03T19:20:31.289Z,26.89
2022-08-03T19:23:00.000Z,26.84
2022-08-03T19:25:34.732Z,26.85
2022-08-03T19:28:06.120Z,26.87
2022-08-03T19:30:38.583Z,26.93
2022-08-03T19:33:09.874Z,26.94
2022-08-03T19:35:54.920Z,26.84
2022-08-03T19:38:29.024Z,26.74
2022-08-03T19:41:03.200Z,26.79
2022-08-03T19:43:53.139Z,26.73
2022-08-03T19:46:31.165Z,26.68
2022-08-03T19:49:14.817Z,26.69
2022-08-03T19:52:02.231Z,26.63
2022-08-03T19:54:53.305Z,26.62
2022-08-03T19:57:24.491Z,26.48
2022-08-03T19:59:53.887Z,26.40
2022-08-03T20:02:25.725Z,26.44
2022-08-03T20:04:57.786Z,26.36
2022-08-03T20:07:29.481Z,26.39
2022-08-03T20:10:01.587Z,26.30
2022-08-03T20:12:33.231Z,26.27
2022-08-03T20:15:06.851Z,26.11
2022-08-03T20:17:56.106Z,26.12
2022-08-03T20:20:24.469Z,25.93
2022-08-03T20:22:57.727Z,26.00
2022-08-03T20:25:38.280Z,25.99
2022-08-03T20:28:15.242Z,25.83
2022-08-03T20:30:47.383Z,25.81
2022-08-03T20:33:18.860Z,25.77
2022-08-03T20:35:49.396Z,25.77
2022-08-03T20:38:19.018Z,25.73
2022-08-03T20:40:47.679Z,25.67
2022-08-03T20:43:16.609Z,25.70
2022-08-03T20:46:01.244Z,25.66
2022-08-03T20:48:36.433Z,25.76
2022-08-03T20:51:19.610Z,25.92
2022-08-03T20:53:59.657Z,25.99
2022-08-03T20:56:32.517Z,25.90
2022-08-03T20:59:04.005Z,25.78
2022-08-03T21:01:36.205Z,25.78
2022-08-03T21:04:07.176Z,25.85
2022-08-03T21:06:53.145Z,25.88
2022-08-03T21:09:33.562Z,25.91
2022-08-03T21:12:13.176Z,25.85
2022-08-03T21:14:52.324Z,25.63
2022-08-03T21:17:38.414Z,25.44
2022-08-03T21:20:10.894Z,25.42
2022-08-03T21:22:41.749Z,25.47
2022-08-03T21:25:10.702Z,25.50
2022-08-03T21:27:42.013Z,25.58
2022-08-03T21:30:11.432Z,25.68
2022-08-03T21:32:40.733Z,25.58
2022-08-03T21:35:12.966Z,25.52
2022-08-03T21:37:42.589Z,25.43
2022-08-03T21:40:12.463Z,25.45
2022-08-03T21:42:44.469Z,25.42
2022-08-03T21:45:17.345Z,25.35
2022-08-03T21:47:47.022Z,25.49
2022-08-03T21:50:14.736Z,25.18
2022-08-03T21:52:47.369Z,25.38
2022-08-03T21:55:20.300Z,25.24
2022-08-03T21:57:53.176Z,25.14
2022-08-03T22:00:23.419Z,25.24
2022-08-03T22:02:56.035Z,25.68
2022-08-03T22:05:42.512Z,26.25
2022-08-03T22:08:14.253Z,26.09
2022-08-03T22:10:44.852Z,27.75
2022-08-03T22:13:14.418Z,29.16
2022-08-03T22:15:42.061Z,29.73
2022-08-03T22:18:10.133Z,29.82
2022-08-03T22:20:37.821Z,30.28
2022-08-03T22:23:06.967Z,30.25
2022-08-03T22:25:36.801Z,29.11
2022-08-03T22:28:12.877Z,28.43
2022-08-03T22:30:41.852Z,28.56
2022-08-03T22:33:12.983Z,27.09
2022-08-03T22:35:44.199Z,29.39
2022-08-03T22:38:17.274Z,30.41
2022-08-03T22:40:45.332Z,31.27
2022-08-03T22:43:12.623Z,31.32
2022-08-03T22:46:09.397Z,31.75
2022-08-03T22:48:29.370Z,31.35
2022-08-03T22:51:00.913Z,31.09
2022-08-03T22:53:28.898Z,29.99
2022-08-03T22:55:56.440Z,28.55
2022-08-03T22:58:23.978Z,26.97
2022-08-03T23:01:07.451Z,26.84
2022-08-03T23:03:58.653Z,27.00
2022-08-03T23:06:27.421Z,27.64
2022-08-03T23:08:55.780Z,27.17
2022-08-03T23:11:25.009Z,27.41
2022-08-03T23:13:54.714Z,28.03
2022-08-03T23:16:28.875Z,28.15
2022-08-03T23:19:16.583Z,28.81
2022-08-03T23:21:51.271Z,28.89
2022-08-03T23:24:30.239Z,28.60
2022-08-03T23:26:59.212Z,28.18
2022-08-03T23:29:29.543Z,28.37
2022-08-03T23:31:57.837Z,27.51
2022-08-03T23:34:44.626Z,27.06
2022-08-03T23:37:15.022Z,26.26
2022-08-03T23:39:47.349Z,27.73
2022-08-03T23:42:18.309Z,28.08
2022-08-03T23:44:46.598Z,29.01
2022-08-03T23:47:14.494Z,28.85
2022-08-03T23:49:41.987Z,29.51
2022-08-03T23:52:53.204Z,28.49
2022-08-03T23:55:21.511Z,29.00
2022-08-03T23:58:17.159Z,29.13
